createdAt,value
2022-08-19T00:00:13.173Z,75.87
2022-08-19T00:01:13.083Z,75.77
2022-08-19T00:02:13.073Z,75.67
2022-08-19T00:03:13.044Z,75.67
2022-08-19T00:04:13.126Z,75.27
2022-08-19T00:05:13.045Z,75.47
2022-08-19T00:06:13.022Z,75.37
2022-08-19T00:07:13.022Z,75.13
2022-08-19T00:08:13.063Z,75.23
2022-08-19T00:09:12.976Z,75.23
2022-08-19T00:10:12.954Z,75.23
2022-08-19T00:11:18.577Z,75.13
2022-08-19T00:12:13.968Z,75.13
2022-08-19T00:13:12.931Z,75.13
2022-08-19T00:14:12.922Z,75.13
2022-08-19T00:15:12.910Z,75.43
2022-08-19T00:16:12.891Z,75.63
2022-08-19T00:17:12.902Z,75.74
2022-08-19T00:18:12.960Z,75.63
2022-08-19T00:19:12.869Z,75.74
2022-08-19T00:20:12.866Z,75.63
2022-08-19T00:21:12.800Z,75.13
2022-08-19T00:22:12.839Z,74.84
2022-08-19T00:23:12.804Z,74.73
2022-08-19T00:24:12.810Z,74.73
2022-08-19T00:25:12.829Z,74.73
2022-08-19T00:26:12.778Z,74.54
2022-08-19T00:27:25.731Z,74.63
2022-08-19T00:28:13.745Z,74.73
2022-08-19T00:29:12.708Z,74.63
2022-08-19T00:30:12.718Z,74.63
2022-08-19T00:31:12.707Z,74.54
2022-08-19T00:32:12.727Z,74.43
2022-08-19T00:33:12.676Z,74.63
2022-08-19T00:34:12.686Z,74.43
2022-08-19T00:35:12.645Z,74.43
2022-08-19T00:36:12.695Z,74.43
2022-08-19T00:37:12.626Z,74.43
2022-08-19T00:38:12.615Z,74.54
2022-08-19T00:39:12.694Z,74.63
2022-08-19T00:40:12.654Z,74.43
2022-08-19T00:41:12.640Z,74.63
2022-08-19T00:42:14.284Z,74.54
2022-08-19T00:43:12.638Z,74.54
2022-08-19T00:44:12.514Z,74.33
2022-08-19T00:45:12.544Z,74.54
2022-08-19T00:46:12.531Z,74.33
2022-08-19T00:47:14.320Z,74.23
2022-08-19T00:48:15.129Z,74.33
2022-08-19T00:49:12.473Z,74.33
2022-08-19T00:50:12.533Z,74.33
2022-08-19T00:51:12.452Z,74.33
2022-08-19T00:52:12.457Z,74.54
2022-08-19T00:53:12.463Z,74.43
2022-08-19T00:54:12.392Z,74.43
2022-08-19T00:55:12.402Z,74.57
2022-08-19T00:56:12.392Z,74.54
2022-08-19T00:57:12.412Z,74.57
2022-08-19T00:58:12.362Z,74.67
2022-08-19T00:59:12.361Z,74.67
2022-08-19T01:00:12.321Z,74.67
2022-08-19T01:01:12.371Z,74.77
2022-08-19T01:02:12.321Z,74.77
2022-08-19T01:03:12.331Z,74.87
2022-08-19T01:04:12.296Z,74.87
2022-08-19T01:05:12.261Z,75.07
2022-08-19T01:06:12.236Z,75.07
2022-08-19T01:07:15.187Z,75.17
2022-08-19T01:08:13.207Z,75.27
2022-08-19T01:09:12.220Z,75.17
2022-08-19T01:10:12.204Z,75.37
2022-08-19T01:11:12.168Z,75.37
2022-08-19T01:12:12.198Z,75.37
2022-08-19T01:13:12.139Z,75.37
2022-08-19T01:14:12.140Z,75.37
2022-08-19T01:15:12.159Z,75.57
2022-08-19T01:16:12.139Z,75.47
2022-08-19T01:17:12.088Z,75.47
2022-08-19T01:18:12.097Z,75.57
2022-08-19T01:19:12.107Z,75.47
2022-08-19T01:20:12.096Z,75.37
2022-08-19T01:21:12.084Z,75.57
2022-08-19T01:22:14.413Z,75.67
2022-08-19T01:23:12.033Z,75.57
2022-08-19T01:24:12.046Z,75.67
2022-08-19T01:25:15.071Z,75.67
2022-08-19T01:26:12.023Z,75.67
2022-08-19T01:27:11.995Z,75.67
2022-08-19T01:28:11.975Z,75.81
2022-08-19T01:29:12.031Z,75.81
2022-08-19T01:30:11.925Z,75.91
2022-08-19T01:31:11.947Z,75.97
2022-08-19T01:32:33.231Z,76.17
2022-08-19T01:33:12.896Z,75.91
2022-08-19T01:34:11.885Z,76.01
2022-08-19T01:35:11.936Z,75.91
2022-08-19T01:36:11.846Z,76.01
2022-08-19T01:37:11.853Z,76.11
2022-08-19T01:38:11.853Z,76.11
2022-08-19T01:39:11.854Z,76.01
2022-08-19T01:40:11.838Z,76.11
2022-08-19T01:41:11.803Z,76.01
2022-08-19T01:42:11.805Z,76.01
2022-08-19T01:43:11.808Z,76.11
2022-08-19T01:44:18.430Z,76.21
2022-08-19T01:45:12.743Z,76.11
2022-08-19T01:46:11.731Z,76.21
2022-08-19T01:47:11.731Z,76.61
2022-08-19T01:48:11.690Z,76.71
2022-08-19T01:49:11.711Z,77.01
2022-08-19T01:50:11.668Z,77.01
2022-08-19T01:51:11.711Z,76.91
2022-08-19T01:52:11.649Z,76.91
2022-08-19T01:53:11.650Z,77.01
2022-08-19T01:54:11.639Z,77.21
2022-08-19T01:55:11.629Z,77.21
2022-08-19T01:56:11.598Z,77.31
2022-08-19T01:57:11.608Z,77.21
2022-08-19T01:58:11.576Z,77.31
2022-08-19T01:59:11.575Z,77.41
2022-08-19T02:00:11.558Z,77.51
2022-08-19T02:01:11.608Z,77.51
2022-08-19T02:02:11.534Z,77.31
2022-08-19T02:03:11.659Z,77.31
2022-08-19T02:04:11.507Z,77.21
2022-08-19T02:05:11.538Z,77.31
2022-08-19T02:06:11.498Z,77.31
2022-08-19T02:07:11.496Z,77.51
2022-08-19T02:08:11.468Z,77.31
2022-08-19T02:09:11.511Z,77.21
2022-08-19T02:10:12.485Z,77.21
2022-08-19T02:11:11.448Z,77.51
2022-08-19T02:12:11.475Z,77.51
2022-08-19T02:13:11.385Z,77.72
2022-08-19T02:14:11.358Z,77.72
2022-08-19T02:15:11.357Z,77.72
2022-08-19T02:16:11.365Z,77.81
2022-08-19T02:17:11.393Z,77.95
2022-08-19T02:18:11.358Z,78.05
2022-08-19T02:19:11.315Z,78.05
2022-08-19T02:20:11.336Z,78.05
2022-08-19T02:21:11.333Z,77.95
2022-08-19T02:22:11.292Z,77.75
2022-08-19T02:23:13.461Z,78.15
2022-08-19T02:24:11.243Z,78.05
2022-08-19T02:25:11.224Z,78.15
2022-08-19T02:26:11.240Z,78.35
2022-08-19T02:27:11.264Z,78.35
2022-08-19T02:28:11.915Z,78.45
2022-08-19T02:29:11.227Z,78.35
2022-08-19T02:30:14.106Z,78.25
2022-08-19T02:31:11.219Z,78.35
2022-08-19T02:32:11.139Z,78.45
2022-08-19T02:33:11.134Z,78.45
2022-08-19T02:34:11.151Z,78.66
2022-08-19T02:35:12.143Z,78.55
2022-08-19T02:36:11.162Z,78.75
2022-08-19T02:37:11.089Z,78.66
2022-08-19T02:38:11.079Z,78.85
2022-08-19T02:39:11.127Z,78.96
2022-08-19T02:40:12.487Z,78.75
2022-08-19T02:41:11.190Z,78.66
2022-08-19T02:42:11.027Z,78.75
2022-08-19T02:43:11.046Z,78.85
2022-08-19T02:44:30.081Z,78.96
2022-08-19T02:45:11.981Z,78.96
2022-08-19T02:46:11.008Z,78.96
2022-08-19T02:47:10.939Z,78.96
2022-08-19T02:48:21.213Z,79.05
2022-08-19T02:49:11.969Z,79.05
2022-08-19T02:50:10.908Z,79.05
2022-08-19T02:51:10.938Z,79.05
2022-08-19T02:52:10.918Z,78.96
2022-08-19T02:53:10.910Z,78.96
2022-08-19T02:54:10.888Z,79.05
2022-08-19T02:55:10.877Z,79.05
2022-08-19T02:56:10.903Z,79.05
2022-08-19T02:57:10.815Z,79.16
2022-08-19T02:58:10.816Z,79.36
2022-08-19T02:59:11.247Z,79.25
2022-08-19T03:00:10.795Z,79.25
2022-08-19T03:01:10.838Z,79.25
2022-08-19T03:02:10.824Z,79.36
2022-08-19T03:03:10.744Z,79.55
2022-08-19T03:04:10.749Z,79.46
2022-08-19T03:05:10.935Z,79.60
2022-08-19T03:06:10.723Z,79.49
2022-08-19T03:07:11.448Z,79.49
2022-08-19T03:08:10.673Z,79.60
2022-08-19T03:09:10.659Z,79.49
2022-08-19T03:10:10.672Z,79.60
2022-08-19T03:11:10.673Z,79.39
2022-08-19T03:12:10.663Z,79.39
2022-08-19T03:13:10.622Z,79.60
2022-08-19T03:14:10.609Z,79.60
2022-08-19T03:15:10.634Z,79.69
2022-08-19T03:16:10.612Z,79.69
2022-08-19T03:17:10.552Z,79.69
2022-08-19T03:18:10.579Z,79.69
2022-08-19T03:19:10.581Z,79.80
2022-08-19T03:20:10.531Z,79.90
2022-08-19T03:21:12.309Z,79.90
2022-08-19T03:22:10.491Z,79.90
2022-08-19T03:23:10.519Z,80.04
2022-08-19T03:24:10.487Z,80.13
2022-08-19T03:25:10.489Z,80.04
2022-08-19T03:26:16.051Z,80.04
2022-08-19T03:27:11.511Z,80.13
2022-08-19T03:28:10.430Z,80.13
2022-08-19T03:29:10.398Z,80.13
2022-08-19T03:30:11.690Z,80.43
2022-08-19T03:31:41.641Z,80.24
2022-08-19T03:32:32.520Z,80.43
2022-08-19T03:33:11.406Z,80.43
2022-08-19T03:34:11.394Z,80.54
2022-08-19T03:35:10.356Z,80.74
2022-08-19T03:36:10.355Z,80.77
2022-08-19T03:37:10.327Z,80.88
2022-08-19T03:38:10.308Z,80.88
2022-08-19T03:39:10.371Z,81.18
2022-08-19T03:40:10.318Z,81.18
2022-08-19T03:41:11.926Z,81.27
2022-08-19T03:42:32.456Z,81.18
2022-08-19T03:43:11.218Z,81.07
2022-08-19T03:44:11.041Z,81.18
2022-08-19T03:45:11.195Z,81.18
2022-08-19T03:46:10.207Z,81.07
2022-08-19T03:47:10.165Z,81.18
2022-08-19T03:48:10.165Z,81.38
2022-08-19T03:49:10.164Z,81.27
2022-08-19T03:50:10.166Z,81.27
2022-08-19T03:51:10.164Z,81.38
2022-08-19T03:52:10.153Z,81.27
2022-08-19T03:53:10.096Z,81.38
2022-08-19T03:54:10.073Z,81.27
2022-08-19T03:55:10.144Z,81.38
2022-08-19T03:56:10.084Z,81.38
2022-08-19T03:57:10.096Z,81.38
2022-08-19T03:58:10.072Z,81.27
2022-08-19T03:59:10.017Z,81.38
2022-08-19T04:00:13.062Z,81.38
2022-08-19T04:01:10.097Z,81.48
2022-08-19T04:02:10.021Z,81.48
2022-08-19T04:03:09.971Z,81.38
2022-08-19T04:04:10.114Z,81.48
2022-08-19T04:05:09.974Z,81.48
2022-08-19T04:06:09.940Z,81.68
2022-08-19T04:07:09.952Z,81.68
2022-08-19T04:08:13.796Z,81.78
2022-08-19T04:09:09.960Z,81.68
2022-08-19T04:10:10.714Z,81.68
2022-08-19T04:11:09.900Z,81.68
2022-08-19T04:12:09.870Z,81.72
2022-08-19T04:13:09.831Z,81.82
2022-08-19T04:14:09.822Z,81.92
2022-08-19T04:15:09.848Z,81.92
2022-08-19T04:16:09.809Z,81.92
2022-08-19T04:17:09.940Z,82.02
2022-08-19T04:18:09.777Z,82.12
2022-08-19T04:19:09.858Z,82.02
2022-08-19T04:20:09.737Z,82.02
2022-08-19T04:21:09.727Z,82.12
2022-08-19T04:22:09.741Z,82.02
2022-08-19T04:23:09.721Z,82.02
2022-08-19T04:24:09.696Z,82.02
2022-08-19T04:25:09.716Z,82.12
2022-08-19T04:26:09.661Z,82.42
2022-08-19T04:27:09.759Z,82.32
2022-08-19T04:28:09.669Z,82.22
2022-08-19T04:29:12.530Z,82.32
2022-08-19T04:30:09.665Z,82.32
2022-08-19T04:31:09.625Z,82.42
2022-08-19T04:32:09.980Z,82.42
2022-08-19T04:33:09.584Z,82.32
2022-08-19T04:34:09.574Z,82.52
2022-08-19T04:35:17.838Z,82.42
2022-08-19T04:36:10.564Z,82.52
2022-08-19T04:37:10.278Z,82.42
2022-08-19T04:38:09.549Z,82.32
2022-08-19T04:39:09.508Z,82.32
2022-08-19T04:40:10.278Z,82.42
2022-08-19T04:41:09.473Z,82.32
2022-08-19T04:42:09.670Z,82.52
2022-08-19T04:43:09.467Z,82.42
2022-08-19T04:44:09.474Z,82.52
2022-08-19T04:45:09.588Z,82.52
2022-08-19T04:46:09.448Z,82.42
2022-08-19T04:47:11.220Z,82.22
2022-08-19T04:48:19.782Z,82.32
2022-08-19T04:49:13.697Z,82.28
2022-08-19T04:50:09.379Z,82.18
2022-08-19T04:51:09.358Z,82.18
2022-08-19T04:52:09.449Z,82.18
2022-08-19T04:53:09.329Z,82.18
2022-08-19T04:54:09.340Z,82.08
2022-08-19T04:55:09.294Z,81.98
2022-08-19T04:56:09.285Z,81.98
2022-08-19T04:57:09.328Z,81.98
2022-08-19T04:58:09.309Z,81.98
2022-08-19T04:59:09.251Z,81.98
2022-08-19T05:00:09.249Z,81.88
2022-08-19T05:01:09.285Z,81.98
2022-08-19T05:02:09.242Z,82.28
2022-08-19T05:03:09.238Z,81.88
2022-08-19T05:04:09.897Z,81.78
2022-08-19T05:05:09.166Z,81.78
2022-08-19T05:06:09.158Z,81.68
2022-08-19T05:07:09.178Z,81.58
2022-08-19T05:08:09.147Z,81.68
2022-08-19T05:09:09.136Z,81.58
2022-08-19T05:10:09.185Z,81.48
2022-08-19T05:11:09.825Z,81.58
2022-08-19T05:12:09.114Z,81.68
2022-08-19T05:13:09.189Z,81.58
2022-08-19T05:14:09.117Z,81.58
2022-08-19T05:15:09.145Z,81.58
2022-08-19T05:16:09.045Z,81.48
2022-08-19T05:17:26.746Z,81.48
2022-08-19T05:18:10.018Z,81.48
2022-08-19T05:19:09.047Z,81.38
2022-08-19T05:20:09.004Z,81.27
2022-08-19T05:21:08.984Z,81.27
2022-08-19T05:22:08.988Z,81.27
2022-08-19T05:23:12.791Z,81.14
2022-08-19T05:24:09.945Z,81.27
2022-08-19T05:25:12.951Z,81.24
2022-08-19T05:26:08.903Z,81.24
2022-08-19T05:27:08.893Z,81.24
2022-08-19T05:28:08.883Z,81.14
2022-08-19T05:29:08.858Z,81.14
2022-08-19T05:30:08.857Z,81.14
2022-08-19T05:31:08.843Z,81.24
2022-08-19T05:32:08.849Z,81.34
2022-08-19T05:33:08.813Z,81.34
2022-08-19T05:34:18.220Z,81.34
2022-08-19T05:35:09.827Z,81.24
2022-08-19T05:36:08.766Z,81.34
2022-08-19T05:37:08.781Z,81.34
2022-08-19T05:38:08.780Z,81.24
2022-08-19T05:39:08.734Z,81.34
2022-08-19T05:40:08.866Z,81.34
2022-08-19T05:41:08.738Z,81.24
2022-08-19T05:42:08.727Z,81.14
2022-08-19T05:43:08.670Z,81.14
2022-08-19T05:44:08.689Z,81.14
2022-08-19T05:45:08.689Z,81.04
2022-08-19T05:46:08.638Z,81.14
2022-08-19T05:47:08.629Z,81.24
2022-08-19T05:48:08.677Z,81.04
2022-08-19T05:49:08.619Z,81.04
2022-08-19T05:50:08.620Z,81.04
2022-08-19T05:51:08.578Z,81.04
2022-08-19T05:52:08.608Z,80.74
2022-08-19T05:53:08.576Z,80.74
2022-08-19T05:54:08.535Z,80.83
2022-08-19T05:55:08.546Z,80.83
2022-08-19T05:56:08.508Z,80.74
2022-08-19T05:57:08.496Z,80.63
2022-08-19T05:58:08.550Z,80.74
2022-08-19T05:59:08.519Z,80.63
2022-08-19T06:00:08.555Z,80.54
2022-08-19T06:01:08.449Z,80.63
2022-08-19T06:02:08.472Z,80.74
2022-08-19T06:03:11.806Z,80.60
2022-08-19T06:04:08.415Z,80.43
2022-08-19T06:05:08.388Z,80.50
2022-08-19T06:06:08.396Z,80.40
2022-08-19T06:07:12.317Z,80.40
2022-08-19T06:08:08.403Z,80.40
2022-08-19T06:09:08.372Z,80.19
2022-08-19T06:10:08.335Z,80.19
2022-08-19T06:11:08.333Z,80.30
2022-08-19T06:12:08.303Z,80.54
2022-08-19T06:13:08.304Z,80.30
2022-08-19T06:14:08.284Z,80.40
2022-08-19T06:15:09.256Z,80.50
2022-08-19T06:16:08.273Z,80.50
2022-08-19T06:17:08.252Z,80.54
2022-08-19T06:18:08.251Z,80.40
2022-08-19T06:19:08.220Z,80.40
2022-08-19T06:20:08.201Z,80.50
2022-08-19T06:21:08.192Z,80.60
2022-08-19T06:22:08.166Z,80.40
2022-08-19T06:23:08.161Z,80.40
2022-08-19T06:24:08.169Z,80.60
2022-08-19T06:25:08.167Z,80.70
2022-08-19T06:26:08.129Z,80.60
2022-08-19T06:27:08.191Z,80.60
2022-08-19T06:28:15.774Z,80.60
2022-08-19T06:29:09.077Z,80.80
2022-08-19T06:30:08.094Z,80.80
2022-08-19T06:31:08.091Z,80.90
2022-08-19T06:32:08.068Z,80.50
2022-08-19T06:33:08.023Z,80.40
2022-08-19T06:34:08.019Z,80.30
2022-08-19T06:35:08.084Z,80.30
2022-08-19T06:36:07.999Z,80.10
2022-08-19T06:37:08.003Z,79.99
2022-08-19T06:38:07.964Z,80.19
2022-08-19T06:39:07.967Z,80.10
2022-08-19T06:40:07.968Z,79.90
2022-08-19T06:41:08.240Z,80.10
2022-08-19T06:42:07.925Z,79.99
2022-08-19T06:43:08.564Z,79.99
2022-08-19T06:44:07.897Z,79.80
2022-08-19T06:45:09.479Z,79.86
2022-08-19T06:46:07.885Z,79.90
2022-08-19T06:47:09.634Z,79.86
2022-08-19T06:48:08.869Z,80.06
2022-08-19T06:49:07.835Z,79.86
2022-08-19T06:50:07.825Z,80.06
2022-08-19T06:51:08.704Z,79.96
2022-08-19T06:52:07.816Z,79.86
2022-08-19T06:53:07.792Z,80.26
2022-08-19T06:54:07.761Z,80.26
2022-08-19T06:55:08.821Z,80.06
2022-08-19T06:56:07.841Z,79.86
2022-08-19T06:57:07.753Z,80.06
2022-08-19T06:58:07.769Z,79.66
2022-08-19T06:59:07.693Z,79.86
2022-08-19T07:00:12.276Z,79.82
2022-08-19T07:01:09.244Z,79.72
2022-08-19T07:02:07.778Z,79.22
2022-08-19T07:03:08.618Z,79.42
2022-08-19T07:04:07.645Z,79.42
2022-08-19T07:05:07.622Z,78.92
2022-08-19T07:06:09.841Z,78.81
2022-08-19T07:07:20.140Z,78.92
2022-08-19T07:08:08.603Z,79.22
2022-08-19T07:09:07.592Z,79.22
2022-08-19T07:10:07.870Z,78.92
2022-08-19T07:11:09.454Z,78.92
2022-08-19T07:12:07.549Z,79.12
2022-08-19T07:13:07.520Z,79.42
2022-08-19T07:14:07.621Z,79.32
2022-08-19T07:15:08.499Z,78.81
2022-08-19T07:16:07.489Z,79.02
2022-08-19T07:17:07.493Z,79.02
2022-08-19T07:18:07.500Z,79.38
2022-08-19T07:19:16.004Z,79.18
2022-08-19T07:20:09.689Z,79.08
2022-08-19T07:21:09.505Z,79.08
2022-08-19T07:22:07.457Z,78.88
2022-08-19T07:23:08.387Z,78.88
2022-08-19T07:24:07.614Z,78.88
2022-08-19T07:25:07.393Z,78.68
2022-08-19T07:26:07.398Z,78.84
2022-08-19T07:27:10.392Z,78.74
2022-08-19T07:28:08.337Z,78.74
2022-08-19T07:29:08.307Z,78.74
2022-08-19T07:30:07.325Z,78.74
2022-08-19T07:31:07.307Z,79.04
2022-08-19T07:32:07.279Z,79.00
2022-08-19T07:33:07.266Z,78.41
2022-08-19T07:34:07.276Z,77.91
2022-08-19T07:35:07.274Z,78.80
2022-08-19T07:36:07.250Z,78.30
2022-08-19T07:37:07.204Z,77.30
2022-08-19T07:38:07.216Z,77.26
2022-08-19T07:39:07.259Z,77.06
2022-08-19T07:40:07.310Z,76.97
2022-08-19T07:41:07.162Z,77.47
2022-08-19T07:42:07.245Z,76.76
2022-08-19T07:43:08.541Z,75.96
2022-08-19T07:44:07.133Z,75.93
2022-08-19T07:45:07.121Z,75.93
2022-08-19T07:46:07.094Z,76.13
2022-08-19T07:47:07.075Z,75.52
2022-08-19T07:48:08.098Z,75.83
2022-08-19T07:49:07.054Z,76.03
2022-08-19T07:50:07.713Z,75.73
2022-08-19T07:51:07.109Z,75.43
2022-08-19T07:52:07.032Z,76.09
2022-08-19T07:53:07.002Z,76.09
2022-08-19T07:54:07.029Z,75.59
2022-08-19T07:55:07.135Z,75.69
2022-08-19T07:56:07.971Z,75.65
2022-08-19T07:57:06.980Z,74.05
2022-08-19T07:58:07.180Z,74.96
2022-08-19T07:59:06.942Z,75.26
2022-08-19T08:00:06.949Z,75.35
2022-08-19T08:01:06.900Z,75.12
2022-08-19T08:02:07.040Z,74.92
2022-08-19T08:03:06.968Z,73.92
2022-08-19T08:04:06.870Z,73.62
2022-08-19T08:05:06.874Z,73.32
2022-08-19T08:06:06.890Z,75.12
2022-08-19T08:07:06.850Z,75.02
2022-08-19T08:08:06.829Z,74.42
2022-08-19T08:09:06.944Z,74.22
2022-08-19T08:10:07.881Z,73.82
2022-08-19T08:11:08.390Z,73.82
2022-08-19T08:12:30.800Z,73.62
2022-08-19T08:13:10.191Z,73.42
2022-08-19T08:14:06.766Z,74.08
2022-08-19T08:15:08.164Z,73.79
2022-08-19T08:16:06.846Z,73.79
2022-08-19T08:17:10.688Z,74.38
2022-08-19T08:18:06.758Z,74.98
2022-08-19T08:19:20.239Z,73.28
2022-08-19T08:20:07.699Z,73.19
2022-08-19T08:21:06.773Z,74.08
2022-08-19T08:22:06.640Z,74.05
2022-08-19T08:23:06.655Z,73.35
2022-08-19T08:24:06.844Z,72.35
2022-08-19T08:25:06.691Z,72.65
2022-08-19T08:26:06.600Z,73.35
2022-08-19T08:27:11.124Z,73.42
2022-08-19T08:28:07.704Z,72.72
2022-08-19T08:29:12.326Z,72.62
2022-08-19T08:30:07.535Z,73.11
2022-08-19T08:31:09.751Z,72.42
2022-08-19T08:32:14.851Z,72.42
2022-08-19T08:33:07.547Z,72.02
2022-08-19T08:34:06.634Z,71.72
2022-08-19T08:35:06.489Z,72.08
2022-08-19T08:36:06.488Z,72.08
2022-08-19T08:37:06.452Z,71.89
2022-08-19T08:38:06.442Z,71.48
2022-08-19T08:39:06.442Z,71.59
2022-08-19T08:40:08.084Z,71.59
2022-08-19T08:41:06.392Z,72.68
2022-08-19T08:42:10.080Z,73.38
2022-08-19T08:43:06.432Z,71.48
2022-08-19T08:44:07.384Z,71.39
2022-08-19T08:45:06.334Z,71.29
2022-08-19T08:46:06.452Z,71.59
2022-08-19T08:47:07.925Z,72.08
2022-08-19T08:48:06.313Z,72.19
2022-08-19T08:49:07.329Z,72.49
2022-08-19T08:50:06.357Z,71.89
2022-08-19T08:51:06.260Z,71.48
2022-08-19T08:52:06.266Z,71.39
2022-08-19T08:53:06.290Z,71.39
2022-08-19T08:54:06.300Z,71.48
2022-08-19T08:55:10.310Z,72.28
2022-08-19T08:56:06.199Z,72.38
2022-08-19T08:57:06.229Z,72.08
2022-08-19T08:58:06.192Z,72.28
2022-08-19T08:59:06.157Z,72.58
2022-08-19T09:00:06.184Z,71.59
2022-08-19T09:01:07.204Z,71.39
2022-08-19T09:02:06.129Z,71.29
2022-08-19T09:03:06.232Z,71.89
2022-08-19T09:04:06.135Z,72.49
2022-08-19T09:05:06.086Z,72.19
2022-08-19T09:06:06.082Z,71.69
2022-08-19T09:07:33.899Z,71.69
2022-08-19T09:08:07.085Z,72.08
2022-08-19T09:09:11.792Z,71.78
2022-08-19T09:10:07.138Z,71.69
2022-08-19T09:11:06.026Z,71.69
2022-08-19T09:12:05.995Z,72.02
2022-08-19T09:13:09.163Z,72.02
2022-08-19T09:14:05.998Z,71.92
2022-08-19T09:15:05.979Z,72.02
2022-08-19T09:16:05.966Z,72.32
2022-08-19T09:17:05.963Z,72.52
2022-08-19T09:18:07.027Z,71.92
2022-08-19T09:19:06.410Z,72.12
2022-08-19T09:20:05.924Z,71.82
2022-08-19T09:21:05.981Z,72.32
2022-08-19T09:22:05.924Z,72.42
2022-08-19T09:23:05.854Z,71.72
2022-08-19T09:24:05.843Z,72.32
2022-08-19T09:25:05.848Z,72.92
2022-08-19T09:26:05.834Z,73.11
2022-08-19T09:27:18.626Z,73.52
2022-08-19T09:28:12.677Z,73.11
2022-08-19T09:29:06.893Z,71.29
2022-08-19T09:30:05.791Z,71.39
2022-08-19T09:31:05.839Z,71.48
2022-08-19T09:32:05.923Z,69.76
2022-08-19T09:33:06.752Z,70.36
2022-08-19T09:34:05.941Z,69.36
2022-08-19T09:35:08.857Z,69.56
2022-08-19T09:36:08.421Z,68.63
2022-08-19T09:37:05.721Z,68.63
2022-08-19T09:38:05.684Z,68.63
2022-08-19T09:39:05.732Z,68.83
2022-08-19T09:40:06.863Z,68.83
2022-08-19T09:41:05.702Z,68.90
2022-08-19T09:42:05.625Z,69.09
2022-08-19T09:43:11.455Z,69.20
2022-08-19T09:44:06.960Z,67.80
2022-08-19T09:45:10.386Z,67.90
2022-08-19T09:46:06.564Z,68.73
2022-08-19T09:47:05.622Z,68.93
2022-08-19T09:48:05.549Z,69.59
2022-08-19T09:49:06.568Z,69.79
2022-08-19T09:50:05.516Z,70.19
2022-08-19T09:51:05.600Z,69.59
2022-08-19T09:52:05.542Z,70.89
2022-08-19T09:53:05.488Z,68.70
2022-08-19T09:54:05.599Z,68.70
2022-08-19T09:55:07.164Z,68.56
2022-08-19T09:56:05.467Z,68.86
2022-08-19T09:57:07.611Z,68.96
2022-08-19T09:58:05.436Z,69.16
2022-08-19T09:59:05.407Z,67.67
2022-08-19T10:00:05.406Z,67.17
2022-08-19T10:01:05.411Z,67.37
2022-08-19T10:02:10.719Z,67.07
2022-08-19T10:03:07.089Z,67.27
2022-08-19T10:04:14.606Z,67.67
2022-08-19T10:05:06.325Z,66.97
2022-08-19T10:06:05.367Z,67.77
2022-08-19T10:07:06.326Z,68.66
2022-08-19T10:08:05.314Z,67.67
2022-08-19T10:09:06.488Z,69.06
2022-08-19T10:10:05.294Z,68.76
2022-08-19T10:11:27.244Z,69.56
2022-08-19T10:12:06.369Z,69.13
2022-08-19T10:13:06.288Z,67.74
2022-08-19T10:14:05.223Z,67.24
2022-08-19T10:15:05.193Z,67.83
2022-08-19T10:16:05.288Z,66.01
2022-08-19T10:17:17.655Z,66.41
2022-08-19T10:18:06.402Z,65.31
2022-08-19T10:19:05.922Z,65.91
2022-08-19T10:20:05.122Z,64.62
2022-08-19T10:21:05.341Z,65.12
2022-08-19T10:22:05.120Z,64.92
2022-08-19T10:23:06.132Z,66.31
2022-08-19T10:24:05.139Z,66.97
2022-08-19T10:25:05.101Z,66.38
2022-08-19T10:26:05.051Z,66.08
2022-08-19T10:27:05.031Z,65.39
2022-08-19T10:28:05.397Z,64.09
2022-08-19T10:29:06.051Z,64.09
2022-08-19T10:30:05.000Z,64.95
2022-08-19T10:31:06.014Z,64.86
2022-08-19T10:32:04.999Z,64.46
2022-08-19T10:33:08.489Z,63.96
2022-08-19T10:34:06.112Z,63.67
2022-08-19T10:35:06.050Z,62.54
2022-08-19T10:36:04.980Z,63.13
2022-08-19T10:37:05.422Z,63.04
2022-08-19T10:38:06.184Z,63.64
2022-08-19T10:39:04.973Z,64.23
2022-08-19T10:40:04.941Z,63.73
2022-08-19T10:41:04.928Z,63.34
2022-08-19T10:42:04.850Z,61.75
2022-08-19T10:43:05.024Z,60.85
2022-08-19T10:44:04.895Z,61.35
2022-08-19T10:45:05.042Z,61.35
2022-08-19T10:46:04.871Z,61.94
2022-08-19T10:47:04.818Z,62.41
2022-08-19T10:48:05.867Z,62.31
2022-08-19T10:49:04.888Z,60.63
2022-08-19T10:50:04.986Z,61.52
2022-08-19T10:51:04.766Z,60.53
2022-08-19T10:52:04.721Z,60.72
2022-08-19T10:53:08.093Z,60.63
2022-08-19T10:54:06.793Z,60.36
2022-08-19T10:55:08.453Z,61.32
2022-08-19T10:56:04.677Z,60.83
2022-08-19T10:57:04.689Z,60.03
2022-08-19T10:58:04.883Z,59.47
2022-08-19T10:59:04.677Z,60.46
2022-08-19T11:00:04.654Z,60.85
2022-08-19T11:01:04.787Z,60.06
2022-08-19T11:02:04.644Z,59.96
2022-08-19T11:03:04.585Z,61.15
2022-08-19T11:04:04.564Z,60.85
2022-08-19T11:05:05.151Z,60.75
2022-08-19T11:06:05.553Z,61.91
2022-08-19T11:07:04.574Z,60.63
2022-08-19T11:08:04.553Z,61.22
2022-08-19T11:09:05.554Z,61.42
2022-08-19T11:10:04.523Z,62.41
2022-08-19T11:11:04.494Z,60.72
2022-08-19T11:12:05.037Z,60.20
2022-08-19T11:13:04.453Z,60.70
2022-08-19T11:14:04.473Z,60.80
2022-08-19T11:15:04.432Z,60.70
2022-08-19T11:16:07.632Z,59.21
2022-08-19T11:17:04.535Z,60.86
2022-08-19T11:18:04.472Z,60.17
2022-08-19T11:19:04.429Z,60.86
2022-08-19T11:20:04.465Z,59.31
2022-08-19T11:21:04.390Z,58.72
2022-08-19T11:22:04.364Z,59.11
2022-08-19T11:23:04.480Z,59.11
2022-08-19T11:24:04.444Z,59.70
2022-08-19T11:25:04.343Z,60.13
2022-08-19T11:26:04.330Z,58.84
2022-08-19T11:27:04.289Z,59.34
2022-08-19T11:28:04.269Z,59.93
2022-08-19T11:29:04.290Z,59.14
2022-08-19T11:30:04.252Z,60.26
2022-08-19T11:31:04.276Z,59.76
2022-08-19T11:32:04.239Z,59.96
2022-08-19T11:33:04.228Z,59.96
2022-08-19T11:34:04.232Z,59.56
2022-08-19T11:35:04.200Z,58.77
2022-08-19T11:36:04.167Z,58.57
2022-08-19T11:37:04.198Z,58.80
2022-08-19T11:38:07.166Z,59.00
2022-08-19T11:39:05.200Z,59.30
2022-08-19T11:40:04.177Z,59.30
2022-08-19T11:41:04.110Z,59.09
2022-08-19T11:42:04.151Z,59.19
2022-08-19T11:43:04.067Z,59.79
2022-08-19T11:44:04.089Z,59.69
2022-08-19T11:45:04.060Z,60.16
2022-08-19T11:46:04.762Z,59.96
2022-08-19T11:47:09.129Z,59.96
2022-08-19T11:48:05.039Z,59.44
2022-08-19T11:49:04.101Z,58.84
2022-08-19T11:50:03.985Z,58.25
2022-08-19T11:51:04.062Z,57.95
2022-08-19T11:52:04.002Z,59.61
2022-08-19T11:53:03.975Z,56.63
2022-08-19T11:54:03.945Z,55.83
2022-08-19T11:55:03.938Z,54.94
2022-08-19T11:56:07.682Z,55.21
2022-08-19T11:57:03.928Z,57.50
2022-08-19T11:58:03.918Z,56.51
2022-08-19T11:59:03.912Z,54.52
2022-08-19T12:00:03.913Z,54.99
2022-08-19T12:01:03.843Z,56.68
2022-08-19T12:02:03.824Z,54.39
2022-08-19T12:03:03.843Z,54.60
2022-08-19T12:04:03.864Z,53.20
2022-08-19T12:05:03.795Z,52.12
2022-08-19T12:06:03.781Z,52.81
2022-08-19T12:07:03.809Z,52.81
2022-08-19T12:08:07.464Z,52.81
2022-08-19T12:09:03.811Z,52.12
2022-08-19T12:10:03.726Z,52.22
2022-08-19T12:11:03.723Z,54.39
2022-08-19T12:12:03.703Z,54.20
2022-08-19T12:13:03.703Z,52.71
2022-08-19T12:14:03.705Z,53.01
2022-08-19T12:15:03.710Z,53.60
2022-08-19T12:16:03.681Z,54.69
2022-08-19T12:17:03.669Z,53.90
2022-08-19T12:18:03.701Z,53.18
2022-08-19T12:19:03.637Z,53.97
2022-08-19T12:20:03.776Z,52.88
2022-08-19T12:21:03.644Z,53.08
2022-08-19T12:22:03.576Z,52.29
2022-08-19T12:23:03.581Z,51.92
2022-08-19T12:24:03.557Z,52.71
2022-08-19T12:25:03.558Z,51.92
2022-08-19T12:26:03.544Z,52.41
2022-08-19T12:27:03.546Z,51.23
2022-08-19T12:28:04.118Z,51.82
2022-08-19T12:29:03.529Z,51.72
2022-08-19T12:30:03.525Z,51.92
2022-08-19T12:31:03.483Z,51.84
2022-08-19T12:32:03.756Z,52.24
2022-08-19T12:33:03.483Z,51.75
2022-08-19T12:34:03.490Z,52.04
2022-08-19T12:35:03.436Z,51.65
2022-08-19T12:36:03.460Z,52.12
2022-08-19T12:37:03.381Z,53.60
2022-08-19T12:38:03.409Z,52.12
2022-08-19T12:39:03.367Z,52.51
2022-08-19T12:40:03.408Z,51.92
2022-08-19T12:41:03.518Z,52.78
2022-08-19T12:42:03.336Z,51.50
2022-08-19T12:43:03.326Z,51.20
2022-08-19T12:44:03.383Z,51.99
2022-08-19T12:45:03.313Z,52.39
2022-08-19T12:46:03.286Z,51.79
2022-08-19T12:47:03.982Z,50.90
2022-08-19T12:48:03.467Z,50.81
2022-08-19T12:49:05.157Z,50.31
2022-08-19T12:50:06.901Z,51.10
2022-08-19T12:51:03.217Z,50.71
2022-08-19T12:52:03.205Z,52.59